Whitehorse, Yukon Territory

10:59 AM PDT on April 26, 2015 (GMT -0700)
Arkell | | Change Station
CLOSE
Current Station
Personal Weather Station
Location: Whitehorse, YUKON TERRITORY
Elevation: 2300 ft
Nearby Weather Stations

Elev 2300 ft 60.71 °N, 135.12 °W | Updated 7 seconds ago

Mostly Cloudy
Mostly Cloudy
52.7 °F
Feels Like 52.7 °F
N
3.2
Wind Variable Wind from ESE
Gusts 6.3 mph

Today is forecast to be nearly the same temperature as yesterday.

Today
High -- | Low -- °F
--% Chance of Precip.
Yesterday
High -- | Low -- °F
Precip. -- in
6:08 AM 9:49 PM
First Quarter, 57% visible
Pressure 29.78 in
Visibility 40.0 miles
Clouds Scattered Clouds 9000 ft
Mostly Cloudy 18000 ft
Dew Point 26 °F
Humidity 35%
Rainfall 0.00 in
Snow Depth Not available.
UV 1 out of 12
Pollen Not available.
Air Quality Not available.
Flu Activity Not available.
METAR CYXY 261700Z 36003KT 340V070 40SM SCT090 BKN180 03/M07 A2969 RMK AC3CI4 SLP082

More Conditions Fewer Conditions

Pressure 29.78 in
Visibility 40.0 miles
Clouds Scattered Clouds 9000 ft
Mostly Cloudy 18000 ft
Dew Point 26 °F
Humidity 35%
Rainfall 0.00 in
Snow Depth Not available.
UV 1 out of 12
Pollen Not available.
Air Quality Not available.
Flu Activity Not available.
METAR CYXY 261700Z 36003KT 340V070 40SM SCT090 BKN180 03/M07 A2969 RMK AC3CI4 SLP082

More Conditions Fewer Conditions

10-Day Weather Forecast

Almanac

Astronomy

Apr. 26, 2015 Rise Set
Actual Time
Civil Twilight
Nautical Twilight
Astronomical Twilight
Moon
Length of Visible Light
Length of Day
Tomorrow will be .
, % of the Moon is Illuminated

Today's Extremes

Country Highs Country Lows

Community

WunderPhotos

Upload Photos

1,817,066 photos uploaded!

WunderBlogs® & News

Nearby

Air Quality

  Air Quality AQ Index Pollutant
Not available.

Snow Depth

Station Depth Elevation

Earthquake Activity

City Distance Mag. Time & Date
Minimum magnitude displayed is 2.5.

Coastal Water Temperatures

Place Temperature

Stations

Nearby Weather Stations

Station Location Temp. Windchill Dew Point Humidity Wind Precip. Elev Updated Type